Skip Navigation Links
NOAA logo - Click to go to the NOAA homepage
NOAA's National Weather Service
Alaska Aviation Weather Unit
  NWS logo - Click to go to the NWS homepage
Left Navbar Graphic     08 AKDT = 16 GMT

   
NOAA is celebrating 200 years of science, service, and stewardship. Visit the NOAA 200th celebration Web site to learn more.
USA.gov is the U.S. Government's official Web portal to all Federal, state and local government Web resources and services.
Facebook
NWS on Facebook

Important Change Regarding the AAWU Web Presence

 

Over the last several months, the AAWU has been working to navigate its webpages to a nationally supported server. Security, as well as other needs, have necessitated the change.  In the process, we have made an effort to enhance the functionality of our website, as well as some of our products. As of June 20, 2017, aawu.arh.noaa.gov will be discontinued. The new AAWU web address is weather.gov/aawu. It is now live and will run in-parallel with the old site until it is discontinued. Please send any feedback or questions regarding the new webpages to nws.ar.aawu.webauthors@noaa.gov.  Thank you for your patience during this time of transition.
AAWU Home :: Display TAF Add Bookmark
TAF PAKN 231313Z 2313/2412 19008KT P6SM SCT015 OVC045
      TEMPO 2313/2317 5SM -RA BR SCT008 OVC015
     FM231700 17012G18KT P6SM -RA SCT015 BKN025 OVC035
     FM240700 18011KT P6SM -RA OVC007=

PAKN 231001Z 18010KT 10SM FEW025 BKN033 OVC041 04/03 A3006= SPECI PAKN 231001Z 18010KT 10SM FEW025 BKN033 OVC041 04/03 A3006 RMK AO2 T00440028= PAKN 231036Z 18010KT 10SM SCT021 BKN028 OVC038 04/03 A3006= SPECI PAKN 231036Z 18010KT 10SM SCT021 BKN028 OVC038 04/03 A3006 RMK AO2 T00440033= METAR PAKN 231054Z 17009KT 8SM BKN017 BKN022 OVC026 04/03 A3006= SPECI PAKN 231112Z 17008KT 6SM -RA BR SCT008 BKN015 OVC020 04/03 A3006 RMK AO2 RAB10 P0000 T00440033= PAKN 231121Z 17007KT 6SM -RA BR BKN008 BKN013 OVC020 04/04 A3007= SPECI PAKN 231121Z 17007KT 6SM -RA BR BKN008 BKN013 OVC020 04/04 A3007 RMK AO2 RAB10 CIG 007V010 P0000 T00440039= PAKN 231142Z 19011KT 5SM -RA BR SCT008 BKN012 OVC020 04/04 A3007= SPECI PAKN 231142Z 19011KT 5SM -RA BR SCT008 BKN012 OVC020 04/04 A3007 RMK AO2 RAB10 P0000 T00440039= METAR PAKN 231154Z 19009KT 6SM -RA BR FEW008 OVC015 04/04 A3006= PAKN 231252Z 19007KT 7SM FEW009 BKN043 OVC050 04/04 A3007= SPECI PAKN 231252Z 19007KT 7SM FEW009 BKN043 OVC050 04/04 A3007 RMK AO2 RAE34 P0001= METAR PAKN 231254Z 19008KT 7SM FEW011 BKN043 OVC050 04/04 A3007= METAR PAKN 231354Z 19009KT 6SM BR BKN050 OVC070 04/04 A3007= PAKN 231403Z 18008KT 5SM BR FEW006 BKN050 OVC070 04/04 A3007= SPECI PAKN 231403Z 18008KT 5SM BR FEW006 BKN050 OVC070 04/04 A3007 RMK AO2 T00440039= METAR PAKN 231454Z 17006KT 6SM BR OVC055 04/04 A3006= PAKN 231518Z 13008KT 6SM BR SCT005 OVC060 04/04 A3006= PAKN 231518Z 13008KT 6SM BR SCT005 OVC060 04/04 A3006 RMK AO2 T00440039= METAR PAKN 231554Z 16010KT 8SM FEW004 BKN060 OVC250 04/04 A3006=
 Alaska TAF Map

NOAA's National Weather Service
Alaska Aviation Weather Unit
6930 Sand Lake Road
Anchorage, AK 99502-1845
Disclaimer
Credits
Glossary
Privacy Policy
About Us
Career Opportunities
Contact AAWU Internet Services Site last modified: April, 17th 2012